KCID/CID METAR and TAF weather

Enter ICAO airport designator
Station Type Date Time Source
KCID METAR 2019/05/26 01:52 UTC NOAA

KCID 260152Z 19005KT 10SM CLR 22/19 A2992 RMK AO2 SLP126 T02170194


Station Type Date Time Source
KCID Decoded METAR 2019/05/26 01:52 UTC NOAA

CEDAR RAPIDS AIRPORT, IA, United States (KCID) 41-53N 91-43W
May 25, 2019 - 09:52 PM EDT / 2019.05.26 0152 UTC
Wind: from the S (190 degrees) at 6 MPH (5 KT):0
Visibility: 10 mile(s):0
Sky conditions: clear
Temperature: 71.1 F (21.7 C)
Dew Point: 66.9 F (19.4 C)
Relative Humidity: 86%
Pressure (altimeter): 29.92 in. Hg (1013 hPa)
ob: KCID 260152Z 19005KT 10SM CLR 22/19 A2992 RMK AO2 SLP126 T02170194
cycle: 2

Station Type Date Time Source
KCID TAF 2019/05/25 18:24 UTC NOAA

TAF KCID 251721Z 2518/2618 26012G20KT P6SM SCT025 BKN040
TEMPO 2518/2520 BKN025
FM260100 29005KT P6SM VCTS SCT050CB
FM260400 01005KT P6SM BKN050
FM260900 04006KT P6SM VCTS SCT015 OVC050CB
FM261300 07006KT P6SM SCT025 BKN050

Example: see airport list